createdAt,value
2022-11-12T00:00:40.743Z,91.43
2022-11-12T00:03:07.906Z,121.95
2022-11-12T00:05:34.915Z,98.03
2022-11-12T00:08:01.957Z,123.22
2022-11-12T00:10:29.012Z,110.60
2022-11-12T00:12:56.013Z,122.55
2022-11-12T00:15:23.043Z,127.50
2022-11-12T00:17:50.121Z,120.60
2022-11-12T00:20:17.223Z,101.00
2022-11-12T00:22:44.293Z,117.85
2022-11-12T00:25:11.455Z,118.70
2022-11-12T00:27:38.590Z,144.93
2022-11-12T00:30:06.084Z,93.63
2022-11-12T00:32:33.128Z,115.38
2022-11-12T00:35:02.630Z,164.93
2022-11-12T00:37:30.001Z,134.98
2022-11-12T00:39:57.016Z,120.22
2022-11-12T00:42:24.026Z,90.28
2022-11-12T00:44:51.022Z,94.78
2022-11-12T00:47:18.054Z,96.03
2022-11-12T00:49:45.041Z,110.18
2022-11-12T00:52:12.099Z,82.55
2022-11-12T00:54:39.135Z,94.30
2022-11-12T00:57:06.186Z,116.63
2022-11-12T00:59:33.273Z,62.63
2022-11-12T01:02:00.291Z,117.35
2022-11-12T01:04:27.326Z,87.25
2022-11-12T01:06:54.435Z,132.88
2022-11-12T01:09:21.493Z,90.97
2022-11-12T01:11:48.892Z,110.00
2022-11-12T01:14:15.923Z,102.28
2022-11-12T01:16:43.292Z,100.53
2022-11-12T01:19:11.022Z,61.38
2022-11-12T01:21:39.099Z,108.68
2022-11-12T01:24:06.317Z,135.82
2022-11-12T01:26:33.329Z,95.05
2022-11-12T01:29:00.320Z,105.45
2022-11-12T01:31:28.270Z,88.80
2022-11-12T01:33:56.194Z,72.20
2022-11-12T01:36:23.398Z,54.20
2022-11-12T01:38:50.486Z,52.55
2022-11-12T01:41:18.484Z,113.50
2022-11-12T01:43:45.508Z,82.40
2022-11-12T01:46:29.309Z,134.60
2022-11-12T01:48:59.837Z,58.50
2022-11-12T01:53:54.373Z,77.57
2022-11-12T01:56:21.492Z,37.20
2022-11-12T01:58:48.506Z,53.80
2022-11-12T02:01:15.600Z,67.30
2022-11-12T02:03:42.681Z,70.55
2022-11-12T02:06:10.499Z,55.15
2022-11-12T02:08:37.517Z,63.05
2022-11-12T02:11:18.663Z,77.20
2022-11-12T02:13:58.229Z,48.15
2022-11-12T02:16:32.821Z,71.13
2022-11-12T02:19:00.108Z,49.22
2022-11-12T02:21:27.228Z,62.72
2022-11-12T02:24:00.587Z,57.90
2022-11-12T02:26:27.618Z,54.67
2022-11-12T02:28:54.622Z,48.88
2022-11-12T02:31:21.644Z,46.97
2022-11-12T02:33:48.659Z,59.92
2022-11-12T02:36:15.661Z,40.33
2022-11-12T02:38:42.758Z,53.22
2022-11-12T02:41:09.810Z,40.17
2022-11-12T02:43:36.803Z,50.05
2022-11-12T02:46:03.810Z,54.60
2022-11-12T02:48:30.966Z,44.03
2022-11-12T02:50:58.369Z,54.65
2022-11-12T02:53:25.410Z,62.13
2022-11-12T02:55:52.420Z,63.70
2022-11-12T02:58:19.454Z,42.08
2022-11-12T03:00:46.499Z,57.42
2022-11-12T03:03:13.565Z,66.60
2022-11-12T03:05:40.858Z,89.93
2022-11-12T03:08:08.220Z,90.65
2022-11-12T03:10:35.263Z,88.35
2022-11-12T03:13:02.374Z,75.32
2022-11-12T03:15:29.529Z,118.05
2022-11-12T03:17:57.991Z,95.72
2022-11-12T03:20:25.197Z,123.97
2022-11-12T03:22:56.222Z,75.70
2022-11-12T03:25:23.553Z,83.45
2022-11-12T03:27:56.687Z,74.60
2022-11-12T03:30:23.779Z,95.95
2022-11-12T03:32:50.850Z,76.68
2022-11-12T03:35:17.896Z,78.38
2022-11-12T03:37:44.897Z,95.63
2022-11-12T03:40:11.941Z,80.10
2022-11-12T03:42:38.974Z,65.47
2022-11-12T03:45:06.146Z,84.45
2022-11-12T03:47:33.158Z,64.50
2022-11-12T03:50:00.172Z,48.22
2022-11-12T03:52:27.162Z,60.75
2022-11-12T03:54:54.246Z,60.75
2022-11-12T03:57:21.307Z,47.35
2022-11-12T03:59:48.320Z,61.08
2022-11-12T04:02:15.340Z,55.08
2022-11-12T04:05:00.940Z,47.13
2022-11-12T04:07:46.731Z,44.53
2022-11-12T04:10:13.728Z,67.07
2022-11-12T04:12:59.506Z,61.42
2022-11-12T04:15:26.511Z,78.90
2022-11-12T04:18:12.156Z,58.75
2022-11-12T04:20:57.726Z,49.28
2022-11-12T04:23:24.735Z,39.90
2022-11-12T04:26:10.181Z,44.72
2022-11-12T04:28:37.206Z,45.35
2022-11-12T04:31:04.254Z,79.28
2022-11-12T04:33:31.256Z,70.40
2022-11-12T04:35:58.296Z,87.50
2022-11-12T04:38:25.498Z,40.30
2022-11-12T04:41:11.178Z,67.60
2022-11-12T04:43:57.116Z,77.53
2022-11-12T04:46:24.150Z,65.57
2022-11-12T04:48:51.162Z,64.60
2022-11-12T04:51:37.028Z,63.95
2022-11-12T04:54:04.081Z,40.25
2022-11-12T04:56:31.076Z,42.85
2022-11-12T04:58:58.079Z,41.72
2022-11-12T05:01:25.125Z,73.28
2022-11-12T05:03:52.153Z,70.63
2022-11-12T05:06:37.766Z,47.67
2022-11-12T05:09:04.814Z,59.38
2022-11-12T05:11:31.825Z,62.15
2022-11-12T05:13:58.954Z,67.20
2022-11-12T05:16:25.970Z,66.60
2022-11-12T05:18:52.983Z,63.67
2022-11-12T05:21:43.327Z,52.42
2022-11-12T05:26:54.663Z,65.32
2022-11-12T05:29:21.671Z,63.65
2022-11-12T05:31:48.695Z,43.08
2022-11-12T05:34:21.596Z,60.75
2022-11-12T05:36:49.896Z,62.30
2022-11-12T05:39:17.043Z,40.72
2022-11-12T05:42:10.953Z,58.92
2022-11-12T05:44:31.162Z,67.43
2022-11-12T05:46:58.178Z,60.78
2022-11-12T05:49:25.347Z,56.70
2022-11-12T05:51:52.365Z,83.38
2022-11-12T05:54:19.416Z,68.22
2022-11-12T05:56:46.517Z,66.07
2022-11-12T05:59:13.995Z,58.90
2022-11-12T06:01:44.202Z,81.38
2022-11-12T06:04:12.039Z,72.53
2022-11-12T06:06:39.311Z,85.38
2022-11-12T06:09:06.454Z,55.97
2022-11-12T06:11:33.480Z,65.28
2022-11-12T06:14:00.742Z,47.40
2022-11-12T06:16:27.958Z,44.70
2022-11-12T06:18:54.973Z,52.33
2022-11-12T06:21:22.903Z,44.70
2022-11-12T06:23:50.756Z,59.38
2022-11-12T06:26:18.112Z,66.93
2022-11-12T06:28:45.357Z,50.63
2022-11-12T06:31:12.676Z,64.28
2022-11-12T06:33:39.722Z,50.38
2022-11-12T06:36:07.320Z,51.08
2022-11-12T06:38:34.907Z,50.22
2022-11-12T06:41:01.987Z,40.80
2022-11-12T06:43:29.461Z,43.60
2022-11-12T06:45:59.378Z,34.85
2022-11-12T06:48:27.019Z,60.08
2022-11-12T06:50:54.269Z,50.90
2022-11-12T06:53:21.262Z,48.03
2022-11-12T06:55:48.544Z,42.95
2022-11-12T06:58:15.654Z,37.28
2022-11-12T07:00:42.677Z,42.30
2022-11-12T07:03:09.920Z,45.75
2022-11-12T07:05:38.149Z,41.35
2022-11-12T07:08:05.826Z,41.90
2022-11-12T07:10:32.855Z,30.95
2022-11-12T07:12:59.909Z,52.80
2022-11-12T07:15:26.923Z,48.08
2022-11-12T07:17:53.933Z,41.75
2022-11-12T07:20:20.926Z,55.28
2022-11-12T07:22:48.059Z,53.28
2022-11-12T07:25:15.209Z,52.85
2022-11-12T07:27:42.482Z,41.08
2022-11-12T07:30:09.783Z,61.30
2022-11-12T07:32:43.273Z,48.97
2022-11-12T07:35:12.373Z,58.72
2022-11-12T07:37:39.454Z,60.67
2022-11-12T07:40:06.760Z,40.67
2022-11-12T07:42:34.483Z,38.00
2022-11-12T07:45:01.548Z,120.60
2022-11-12T07:47:28.623Z,94.30
2022-11-12T07:49:55.721Z,48.63
2022-11-12T07:52:22.718Z,73.93
2022-11-12T07:54:49.793Z,119.95
2022-11-12T07:57:16.833Z,53.15
2022-11-12T07:59:46.330Z,55.97
2022-11-12T08:02:13.761Z,70.10
2022-11-12T08:04:40.745Z,69.22
2022-11-12T08:07:07.947Z,168.80
2022-11-12T08:09:35.065Z,42.53
2022-11-12T08:12:02.148Z,77.43
2022-11-12T08:14:29.137Z,76.00
2022-11-12T08:16:56.152Z,40.97
2022-11-12T08:19:23.202Z,48.78
2022-11-12T08:21:50.344Z,64.93
2022-11-12T08:24:17.351Z,69.18
2022-11-12T08:26:44.441Z,35.13
2022-11-12T08:29:11.453Z,83.05
2022-11-12T08:31:38.639Z,32.72
2022-11-12T08:34:12.444Z,96.88
2022-11-12T08:36:40.394Z,66.18
2022-11-12T08:39:07.815Z,70.43
2022-11-12T08:51:42.071Z,85.07
2022-11-12T08:54:09.094Z,37.38
2022-11-12T08:56:36.132Z,26.33
2022-11-12T08:59:07.165Z,44.90
2022-11-12T09:01:34.372Z,34.05
2022-11-12T09:04:01.474Z,47.55
2022-11-12T09:06:28.515Z,32.85
2022-11-12T09:08:55.579Z,40.63
2022-11-12T09:11:22.654Z,92.03
2022-11-12T09:13:49.969Z,75.32
2022-11-12T09:16:18.045Z,31.80
2022-11-12T09:18:45.046Z,42.55
2022-11-12T09:21:12.640Z,30.75
2022-11-12T09:23:39.630Z,47.58
2022-11-12T09:26:06.736Z,84.10
2022-11-12T09:28:33.893Z,28.98
2022-11-12T09:31:00.898Z,26.95
2022-11-12T09:33:28.839Z,29.40
2022-11-12T09:35:56.182Z,33.75
2022-11-12T09:38:23.361Z,62.40
2022-11-12T09:40:53.409Z,35.55
2022-11-12T09:43:40.290Z,36.15
2022-11-12T09:46:28.506Z,26.08
2022-11-12T09:49:16.193Z,143.65
2022-11-12T09:51:49.054Z,104.88
2022-11-12T09:54:31.861Z,57.67
2022-11-12T09:56:58.992Z,85.15
2022-11-12T09:59:32.877Z,43.95
2022-11-12T10:02:23.305Z,81.88
2022-11-12T10:04:54.879Z,57.53
2022-11-12T10:07:34.074Z,41.20
2022-11-12T10:10:05.395Z,34.92
2022-11-12T10:12:39.082Z,38.47
2022-11-12T10:15:43.923Z,45.17
2022-11-12T10:18:19.921Z,40.60
2022-11-12T10:20:57.189Z,68.50
2022-11-12T10:23:33.446Z,39.60
2022-11-12T10:26:00.684Z,42.47
2022-11-12T10:28:38.358Z,70.57
2022-11-12T10:31:16.015Z,24.02
2022-11-12T10:33:43.039Z,26.20
2022-11-12T10:36:18.022Z,26.40
2022-11-12T10:38:45.049Z,29.15
2022-11-12T10:41:21.232Z,69.80
2022-11-12T10:43:53.696Z,66.45
2022-11-12T10:46:21.438Z,27.83
2022-11-12T10:48:53.861Z,39.90
2022-11-12T10:51:24.457Z,40.08
2022-11-12T10:56:25.763Z,66.68
2022-11-12T10:59:11.804Z,70.45
2022-11-12T11:01:44.483Z,57.00
2022-11-12T11:04:38.994Z,56.75
2022-11-12T11:07:07.069Z,55.88
2022-11-12T11:09:34.390Z,50.92
2022-11-12T11:12:01.502Z,46.13
2022-11-12T11:14:29.748Z,40.95
2022-11-12T11:17:08.537Z,37.30
2022-11-12T11:19:39.691Z,46.97
2022-11-12T11:22:15.758Z,58.05
2022-11-12T11:24:49.453Z,60.15
2022-11-12T11:27:19.520Z,58.47
2022-11-12T11:29:55.494Z,58.28
2022-11-12T11:32:40.623Z,64.72
2022-11-12T11:35:27.104Z,64.43
2022-11-12T11:38:00.028Z,63.72
2022-11-12T11:40:30.748Z,67.35
2022-11-12T11:43:03.842Z,63.08
2022-11-12T11:45:43.313Z,62.80
2022-11-12T11:48:10.378Z,61.35
2022-11-12T11:50:42.932Z,56.13
2022-11-12T11:53:15.990Z,44.17
2022-11-12T11:55:50.270Z,51.58
2022-11-12T11:58:23.573Z,46.17
2022-11-12T12:01:09.485Z,37.33
2022-11-12T12:03:51.870Z,38.75
2022-11-12T12:06:19.079Z,40.67
2022-11-12T12:08:49.096Z,40.50
2022-11-12T12:11:18.277Z,39.58
2022-11-12T12:13:45.292Z,38.85
2022-11-12T12:16:18.249Z,40.47
2022-11-12T12:19:00.804Z,35.97
2022-11-12T12:21:28.520Z,32.95
2022-11-12T12:24:15.786Z,28.90
2022-11-12T12:26:45.207Z,27.50
2022-11-12T12:29:12.380Z,25.52
2022-11-12T12:31:40.577Z,25.73
2022-11-12T12:34:13.699Z,19.25
2022-11-12T12:36:41.526Z,19.75
2022-11-12T12:39:13.495Z,22.17
2022-11-12T12:41:40.573Z,21.17
2022-11-12T12:44:09.207Z,18.88
2022-11-12T12:46:39.706Z,22.25
2022-11-12T12:49:06.862Z,19.70
2022-11-12T12:51:34.210Z,20.02
2022-11-12T12:54:01.332Z,24.45
2022-11-12T12:56:31.353Z,20.30
2022-11-12T12:59:03.387Z,21.15
2022-11-12T13:01:31.814Z,22.17
2022-11-12T13:03:59.496Z,22.30
2022-11-12T13:06:27.609Z,21.98
2022-11-12T13:09:08.220Z,23.00
2022-11-12T13:14:48.275Z,21.85
2022-11-12T13:17:15.310Z,26.17
2022-11-12T13:19:54.734Z,22.30
2022-11-12T13:22:23.450Z,21.08
2022-11-12T13:25:05.899Z,23.02
2022-11-12T13:28:04.433Z,26.40
2022-11-12T13:30:31.790Z,25.30
2022-11-12T13:32:59.039Z,22.25
2022-11-12T13:35:27.055Z,23.42
2022-11-12T13:38:01.688Z,20.63
2022-11-12T13:40:31.734Z,19.40
2022-11-12T13:43:19.075Z,21.88
2022-11-12T13:45:46.157Z,24.95
2022-11-12T13:48:15.684Z,24.25
2022-11-12T13:50:42.766Z,22.95
2022-11-12T13:53:09.853Z,21.80
2022-11-12T13:55:36.884Z,19.02
2022-11-12T13:58:03.908Z,19.73
2022-11-12T14:00:31.813Z,21.40
2022-11-12T14:03:02.720Z,22.15
2022-11-12T14:05:30.419Z,27.60
2022-11-12T14:08:00.538Z,25.67
2022-11-12T14:10:46.491Z,29.38
2022-11-12T14:13:18.202Z,32.97
2022-11-12T14:16:04.097Z,46.58
2022-11-12T14:18:49.986Z,37.13
2022-11-12T14:21:17.562Z,30.52
2022-11-12T14:23:45.322Z,33.22
2022-11-12T14:26:13.159Z,32.33
2022-11-12T14:28:40.274Z,32.67
2022-11-12T14:31:13.949Z,28.90
2022-11-12T14:33:40.989Z,35.30
2022-11-12T14:36:13.020Z,32.15
2022-11-12T14:38:43.995Z,36.67
2022-11-12T14:41:11.541Z,39.75
2022-11-12T14:44:12.182Z,36.72
2022-11-12T14:46:50.429Z,38.85
2022-11-12T14:49:19.021Z,36.45
2022-11-12T14:51:50.101Z,37.35
2022-11-12T14:54:26.254Z,40.28
2022-11-12T14:56:53.310Z,35.17
2022-11-12T14:59:20.318Z,37.78
2022-11-12T15:04:54.838Z,39.28
2022-11-12T15:07:25.011Z,41.20
2022-11-12T15:09:52.096Z,40.08
2022-11-12T15:12:45.462Z,39.25
2022-11-12T15:15:20.892Z,48.28
2022-11-12T15:17:47.935Z,42.17
2022-11-12T15:20:16.011Z,41.15
2022-11-12T15:22:49.750Z,53.50
2022-11-12T15:25:20.882Z,45.50
2022-11-12T15:27:48.036Z,41.90
2022-11-12T15:30:16.331Z,39.55
2022-11-12T15:32:43.401Z,41.63
2022-11-12T15:35:25.746Z,43.88
2022-11-12T15:37:52.770Z,48.25
2022-11-12T15:40:20.541Z,51.00
2022-11-12T15:42:47.702Z,52.10
2022-11-12T15:45:18.619Z,62.88
2022-11-12T15:47:45.716Z,69.22
2022-11-12T15:50:16.986Z,86.75
2022-11-12T15:52:44.016Z,63.05
2022-11-12T15:55:12.389Z,76.22
2022-11-12T15:57:40.742Z,71.05
2022-11-12T16:00:10.794Z,76.75
2022-11-12T16:02:37.818Z,83.97
2022-11-12T16:05:04.951Z,89.93
2022-11-12T16:07:32.014Z,75.47
2022-11-12T16:09:59.108Z,77.45
2022-11-12T16:12:26.100Z,98.28
2022-11-12T16:14:53.185Z,93.32
2022-11-12T16:17:20.941Z,100.45
2022-11-12T16:19:47.963Z,99.47
2022-11-12T16:22:15.023Z,147.13
2022-11-12T16:24:42.162Z,156.30
2022-11-12T16:27:15.441Z,91.90
2022-11-12T16:29:42.484Z,153.52
2022-11-12T16:32:13.127Z,121.40
2022-11-12T16:34:40.174Z,100.55
2022-11-12T16:37:09.472Z,244.15
2022-11-12T16:39:36.497Z,212.30
2022-11-12T16:42:03.519Z,204.65
2022-11-12T16:44:30.658Z,240.35
2022-11-12T16:46:57.671Z,178.52
2022-11-12T16:49:25.996Z,186.00
2022-11-12T16:51:53.028Z,144.38
2022-11-12T16:54:20.052Z,215.50
2022-11-12T16:56:47.241Z,150.30
2022-11-12T16:59:14.494Z,89.50
2022-11-12T17:01:41.586Z,105.35
2022-11-12T17:04:08.591Z,116.38
2022-11-12T17:06:39.767Z,86.30
2022-11-12T17:09:07.332Z,95.93
2022-11-12T17:11:34.845Z,73.95
2022-11-12T17:14:02.030Z,57.67
2022-11-12T17:16:29.282Z,44.53
2022-11-12T17:18:56.666Z,45.15
2022-11-12T17:21:23.703Z,39.58
2022-11-12T17:23:50.870Z,42.03
2022-11-12T17:26:19.112Z,64.72
2022-11-12T17:28:46.354Z,41.33
2022-11-12T17:31:14.100Z,47.08
2022-11-12T17:33:42.020Z,59.58
2022-11-12T17:36:10.078Z,45.03
2022-11-12T17:38:37.142Z,47.67
2022-11-12T17:41:04.182Z,95.07
2022-11-12T17:43:31.263Z,52.80
2022-11-12T17:45:58.374Z,135.70
2022-11-12T17:48:25.367Z,64.35
2022-11-12T17:50:52.796Z,80.95
2022-11-12T17:53:19.854Z,140.35
2022-11-12T17:55:46.894Z,121.97
2022-11-12T17:58:13.917Z,110.22
2022-11-12T18:00:40.975Z,83.70
2022-11-12T18:03:08.035Z,46.75
2022-11-12T18:05:35.131Z,41.83
2022-11-12T18:08:02.445Z,35.70
2022-11-12T18:10:29.758Z,40.53
2022-11-12T18:12:57.719Z,38.17
2022-11-12T18:15:24.801Z,36.55
2022-11-12T18:17:51.794Z,35.72
2022-11-12T18:20:19.720Z,41.85
2022-11-12T18:22:46.792Z,36.90
2022-11-12T18:25:14.944Z,36.50
2022-11-12T18:27:42.088Z,33.22
2022-11-12T18:30:09.305Z,34.92
2022-11-12T18:32:36.571Z,40.85
2022-11-12T18:35:03.621Z,35.38
2022-11-12T18:37:30.667Z,44.72
2022-11-12T18:39:57.688Z,58.38
2022-11-12T18:42:24.746Z,38.25
2022-11-12T18:44:51.761Z,38.78
2022-11-12T18:47:18.784Z,259.52
2022-11-12T18:49:45.764Z,229.32
2022-11-12T18:52:12.869Z,76.78
2022-11-12T18:54:39.891Z,48.88
2022-11-12T18:57:07.054Z,35.47
2022-11-12T18:59:34.079Z,35.63
2022-11-12T19:02:01.164Z,32.72
2022-11-12T19:04:28.376Z,35.97
2022-11-12T19:06:55.434Z,34.65
2022-11-12T19:09:22.492Z,30.52
2022-11-12T19:11:49.488Z,31.15
2022-11-12T19:14:16.534Z,28.33
2022-11-12T19:16:44.682Z,32.85
2022-11-12T19:19:12.382Z,32.95
2022-11-12T19:21:39.464Z,32.88
2022-11-12T19:24:06.890Z,29.50
2022-11-12T19:26:33.917Z,30.42
2022-11-12T19:29:01.473Z,29.27
2022-11-12T19:31:28.543Z,30.83
2022-11-12T19:33:55.688Z,33.08
2022-11-12T19:36:25.800Z,31.05
2022-11-12T19:38:56.635Z,29.33
2022-11-12T19:41:23.878Z,26.75
2022-11-12T19:43:51.085Z,27.63
2022-11-12T19:46:18.186Z,26.02
2022-11-12T19:48:45.188Z,24.48
2022-11-12T19:51:12.385Z,28.33
2022-11-12T19:53:44.577Z,23.77
2022-11-12T19:56:13.517Z,24.55
2022-11-12T19:58:40.918Z,24.85
2022-11-12T20:01:11.501Z,31.10
2022-11-12T20:06:06.453Z,24.80
2022-11-12T20:08:33.586Z,24.75
2022-11-12T20:11:00.813Z,23.33
2022-11-12T20:13:27.843Z,24.02
2022-11-12T20:15:54.874Z,24.45
2022-11-12T20:18:21.914Z,22.20
2022-11-12T20:20:57.832Z,26.73
2022-11-12T20:23:26.144Z,26.55
2022-11-12T20:25:53.599Z,25.80
2022-11-12T20:28:20.638Z,23.00
2022-11-12T20:30:47.670Z,23.00
2022-11-12T20:33:14.685Z,23.02
2022-11-12T20:35:41.744Z,22.23
2022-11-12T20:38:08.896Z,21.50
2022-11-12T20:40:35.923Z,22.77
2022-11-12T20:43:02.968Z,22.38
2022-11-12T20:45:30.003Z,23.65
2022-11-12T20:47:57.092Z,20.25
2022-11-12T20:50:24.355Z,21.83
2022-11-12T20:52:51.421Z,22.42
2022-11-12T20:55:18.449Z,20.88
2022-11-12T20:57:46.182Z,22.75
2022-11-12T21:00:15.319Z,25.02
2022-11-12T21:05:10.800Z,26.05
2022-11-12T21:07:37.799Z,23.88
2022-11-12T21:10:05.009Z,20.55
2022-11-12T21:12:32.144Z,20.52
2022-11-12T21:14:59.378Z,23.52
2022-11-12T21:17:26.433Z,27.48
2022-11-12T21:19:53.468Z,21.30
2022-11-12T21:22:20.510Z,23.27
2022-11-12T21:24:47.530Z,21.73
2022-11-12T21:27:14.577Z,23.08
2022-11-12T21:29:41.585Z,22.08
2022-11-12T21:32:08.632Z,23.35
2022-11-12T21:34:35.705Z,22.45
2022-11-12T21:37:02.769Z,21.15
2022-11-12T21:39:29.868Z,18.70
2022-11-12T21:41:56.891Z,25.15
2022-11-12T21:44:23.942Z,65.85
2022-11-12T21:46:51.014Z,24.27
2022-11-12T21:49:18.061Z,21.67
2022-11-12T21:51:45.094Z,22.60
2022-11-12T21:54:12.150Z,24.65
2022-11-12T21:56:40.130Z,20.70
2022-11-12T21:59:07.229Z,22.02
2022-11-12T22:01:34.842Z,24.13
2022-11-12T22:04:01.893Z,25.40
2022-11-12T22:06:29.326Z,25.65
2022-11-12T22:08:56.769Z,26.35
2022-11-12T22:11:23.957Z,26.38
2022-11-12T22:13:51.012Z,22.63
2022-11-12T22:16:21.778Z,23.95
2022-11-12T22:18:49.651Z,24.90
2022-11-12T22:21:20.525Z,35.92
2022-11-12T22:23:47.606Z,24.67
2022-11-12T22:26:15.322Z,22.35
2022-11-12T22:28:42.350Z,22.48
2022-11-12T22:31:09.386Z,23.58
2022-11-12T22:33:36.444Z,22.63
2022-11-12T22:36:11.100Z,26.45
2022-11-12T22:38:38.957Z,24.27
2022-11-12T22:41:06.889Z,37.95
2022-11-12T22:43:34.003Z,33.85
2022-11-12T22:46:05.098Z,26.02
2022-11-12T22:48:32.254Z,21.17
2022-11-12T22:51:00.505Z,22.02
2022-11-12T22:53:28.070Z,22.77
2022-11-12T22:55:55.146Z,21.75
2022-11-12T22:58:22.336Z,21.45
2022-11-12T23:00:49.433Z,21.40
2022-11-12T23:03:16.533Z,20.52
2022-11-12T23:05:43.706Z,19.42
2022-11-12T23:08:10.795Z,19.58
2022-11-12T23:10:41.646Z,18.17
2022-11-12T23:13:12.575Z,20.05
2022-11-12T23:15:39.597Z,22.05
2022-11-12T23:18:06.635Z,18.83
2022-11-12T23:20:33.674Z,17.98
2022-11-12T23:23:00.677Z,18.20
2022-11-12T23:25:27.705Z,19.90
2022-11-12T23:27:54.699Z,36.60
2022-11-12T23:30:21.752Z,22.65
2022-11-12T23:32:48.782Z,19.65
2022-11-12T23:35:15.904Z,24.13
2022-11-12T23:37:42.917Z,20.33
2022-11-12T23:40:10.080Z,19.55
2022-11-12T23:42:37.115Z,19.17
2022-11-12T23:45:04.231Z,23.00
2022-11-12T23:47:31.260Z,21.50
2022-11-12T23:49:58.274Z,20.38
2022-11-12T23:52:25.344Z,23.95
2022-11-12T23:54:52.392Z,19.52
2022-11-12T23:57:19.417Z,23.05
2022-11-12T23:59:46.435Z,20.45
